Latest Coastal Weather Observations for Gove Airport

IDD60701

Issued at 7:05 am CST Tuesday 21 October 2014 (issued every 10 minutes, with the page automatically refreshed every 10 minutes)

About coastal observations | Map of coastal stations | Coastal observations for NT | Marine services | Other Formats
Station Details ID: 014508 Name: GOVE AIRPORT Lat: -12.27 Lon: 136.82 Height: 51.6 m
Data from the previous 72 hours. | See also: Recent months at Gove Airport
Date/Time
CST
Temp

°C
Wind Pressure Rain
since 9am
mm
Weather Cloud Vis
km
Sea
Height
m
Swell
Dir
 
Speed
knots
Gust
knots
hPa Trend Height
m
Period
s
Dir
21/07:00am 24.0 ESE 5 6 1015.4 - 0.0 - Mostly clear 10 - - - -
21/06:50am 23.3 E 4 5 1015.2 - 0.0 - Mostly clear 10 - - - -
21/06:30am 21.8 ESE 4 5 1014.9 - 0.0 Shallow fog Mostly clear 10 - - - -
21/06:00am 20.4 SSE 2 3 1014.5 R 0.0 Distant fog Mostly clear 8 - - - -
21/05:54am 20.3 SSE 3 3 1014.7 - 0.0 - - 8 - - - -
21/05:30am 19.9 CALM 0 0 1014.5 - 0.0 - Partly cloudy 5 - - - -
21/05:00am 19.3 CALM 0 0 1014.3 - 0.0 - Partly cloudy 5 - - - -
21/04:30am 18.9 CALM 0 0 1014.0 - 0.0 - Partly cloudy 5 - - - -
21/04:00am 19.0 S 1 4 1013.7 - 0.0 - - 5 - - - -
21/03:30am 19.2 CALM 0 0 1013.6 - 0.0 - - 5 - - - -
21/03:00am 19.0 CALM 0 0 1013.1 - 0.0 - - 5 - - - -
21/02:30am 19.5 CALM 0 0 1013.8 - 0.0 - Partly cloudy 5 - - - -
21/02:10am 19.5 CALM 0 0 1013.8 - 0.0 - Partly cloudy 6 - - - -
21/02:00am 19.9 CALM 0 0 1013.8 - 0.0 - Partly cloudy 10 - - - -
21/01:30am 19.9 SSE 2 4 1014.1 - 0.0 - - 10 - - - -
21/01:00am 20.3 N 2 3 1014.4 - 0.0 - - 10 - - - -
21/12:30am 21.4 S 4 6 1014.6 - 0.0 - - 10 - - - -
21/12:00am 21.4 NNE 3 4 1014.6 - 0.0 - Mostly clear 10 - - - -
 
Date/Time
CST
Temp

°C
Wind Pressure Rain
since 9am
mm
Weather Cloud Vis
km
Sea
Height
m
Swell
Dir
 
Speed
knots
Gust
knots
hPa Trend Height
m
Period
s
Dir
20/11:30pm 21.5 E 4 5 1015.3 - 0.0 - Partly cloudy 10 - - - -
20/11:00pm 21.6 ESE 3 4 1015.4 - 0.0 - - 10 - - - -
20/10:30pm 22.3 SE 5 6 1015.3 - 0.0 - - 10 - - - -
20/10:00pm 22.2 SSE 5 6 1015.2 - 0.0 - - 10 - - - -
20/09:30pm 22.5 SSE 4 5 1014.8 - 0.0 - - 10 - - - -
20/09:00pm 23.2 ESE 5 6 1013.9 S 0.0 Smoke Clear 20 - - - -
20/08:30pm 23.3 SE 4 5 1014.0 - 0.0 - - 10 - - - -
20/08:00pm 23.8 E 5 6 1013.8 - 0.0 - Mostly clear 10 - - - -
20/07:30pm 24.2 ESE 5 6 1013.4 - 0.0 - - 10 - - - -
20/07:00pm 25.3 ESE 6 9 1013.1 - 0.0 - Mostly clear 10 - - - -
20/06:30pm 25.8 ESE 9 13 1012.9 - 0.0 - Mostly clear 10 - - - -
20/06:00pm 26.4 ESE 10 13 1012.2 F 0.0 Haze Mostly clear 30 - - - -
20/05:30pm 26.9 E 12 14 1012.4 - 0.0 - Mostly clear 10 - - - -
20/05:00pm 28.0 E 11 13 1012.2 - 0.0 - Mostly clear 10 - - - -
20/04:30pm 28.1 E 11 15 1012.2 - 0.0 - Mostly clear 10 - - - -
20/04:00pm 28.7 E 11 13 1012.2 - 0.0 - Mostly clear 10 - - - -
20/03:30pm 28.9 E 13 17 1012.5 - 0.0 - Mostly clear 10 - - - -
20/03:00pm 29.6 E 13 21 1012.2 F 0.0 Haze Mostly clear 18 - - - -
20/02:30pm 29.6 E 12 17 1012.9 - 0.0 - Partly cloudy 10 - - - -
20/02:00pm 29.4 E 11 16 1013.1 - 0.0 - Partly cloudy 10 - - - -
20/01:30pm 29.7 ENE 13 19 1013.5 - 0.0 - Partly cloudy 10 - - - -
20/01:00pm 29.1 ENE 14 19 1013.9 - 0.0 - Partly cloudy 10 - - - -
20/12:30pm 30.4 E 12 18 1014.2 - 0.0 - Partly cloudy 10 - - - -
20/12:00pm 30.1 E 13 17 1014.5 R 0.0 Haze Partly cloudy 16 - - - -
20/11:30am 28.8 E 14 18 1015.1 - 0.0 - Partly cloudy 10 - - - -
20/11:00am 29.0 ESE 14 22 1015.2 - 0.0 - Partly cloudy 10 - - - -
20/10:30am 29.3 ESE 12 20 1015.3 - 0.0 - Partly cloudy 10 - - - -
20/10:00am 29.3 ESE 13 18 1015.7 - 0.0 - Mostly clear 10 - - - -
20/09:30am 28.4 ESE 13 20 1015.7 - 0.0 - Mostly clear 10 - - - -
20/09:00am 27.9 ESE 11 17 1015.5 F 0.2 Haze Partly cloudy 18 - - - -
20/08:30am 27.3 E 11 13 1015.9 - 0.2 - Partly cloudy 10 - - - -
20/08:00am 26.8 E 9 12 1015.8 - 0.2 - Mostly clear 10 - - - -
20/07:30am 25.7 ESE 6 9 1015.3 - 0.0 - Mostly clear 10 - - - -
20/07:00am 23.9 ENE 2 5 1014.8 - 0.0 - Mostly clear 10 - - - -
20/06:30am 20.8 CALM 0 0 1014.6 - 0.0 - Mostly clear 10 - - - -
20/06:00am 20.4 N 1 3 1013.9 F 0.0 Smoke Mostly clear 14 - - - -
20/05:30am 20.8 SE 4 4 1014.1 - 0.0 - Partly cloudy 10 - - - -
20/05:00am 20.5 SE 3 4 1013.9 - 0.0 - Partly cloudy 10 - - - -
20/04:30am 20.1 CALM 0 0 1013.9 - 0.0 - Partly cloudy 10 - - - -
20/04:00am 20.0 CALM 0 0 1013.6 - 0.0 - - 10 - - - -
20/03:30am 20.3 NNE 2 3 1013.7 - 0.0 - - 10 - - - -
20/03:00am 20.5 NE 3 4 1013.1 - 0.0 - - 10 - - - -
20/02:30am 21.6 S 5 7 1013.5 - 0.0 - - 10 - - - -
20/02:00am 21.5 SE 5 7 1013.8 - 0.0 - - 10 - - - -
20/01:30am 20.3 CALM 0 0 1014.2 - 0.0 - - 10 - - - -
20/01:00am 20.1 ENE 3 4 1014.2 - 0.0 - - 10 - - - -
20/12:30am 20.6 SSE 5 5 1014.5 - 0.0 - - 10 - - - -
20/12:00am 20.0 S 2 5 1014.2 - 0.0 - - 10 - - - -
 
Date/Time
CST
Temp

°C
Wind Pressure Rain
since 9am
mm
Weather Cloud Vis
km
Sea
Height
m
Swell
Dir
 
Speed
knots
Gust
knots
hPa Trend Height
m
Period
s
Dir
19/11:30pm 20.3 S 1 4 1014.9 - 0.0 - - 10 - - - -
19/11:00pm 21.1 SSE 3 3 1015.1 - 0.0 - Partly cloudy 10 - - - -
19/10:30pm 21.6 SSE 4 5 1015.3 - 0.0 - - 10 - - - -
19/10:00pm 22.1 SE 4 5 1015.4 - 0.0 - Mostly clear 10 - - - -
19/09:30pm 22.4 ESE 4 5 1014.8 - 0.0 - Mostly clear 10 - - - -
19/09:00pm 22.7 SSE 5 6 1014.2 F 0.0 Haze Mostly clear 16 - - - -
19/08:30pm 23.1 ESE 5 5 1014.3 - 0.0 - Mostly clear 10 - - - -
19/08:00pm 23.5 NNE 4 5 1013.9 - 0.0 - Mostly clear 10 - - - -
19/07:30pm 24.2 NE 5 5 1013.6 - 0.0 - Mostly clear 10 - - - -
19/07:00pm 25.5 E 7 9 1013.4 - 0.0 - Mostly clear 10 - - - -
19/06:30pm 26.0 ESE 9 11 1013.2 - 0.0 - Mostly clear 10 - - - -
19/06:00pm 26.6 ESE 11 13 1012.7 R 0.0 Haze Mostly clear 18 - - - -
19/05:30pm 27.5 ESE 10 13 1012.9 - 0.0 - Mostly clear 10 - - - -
19/05:00pm 28.0 ESE 11 14 1012.6 - 0.0 - Partly cloudy 10 - - - -
19/04:30pm 28.4 E 13 16 1012.5 - 0.0 - Partly cloudy 10 - - - -
19/04:00pm 28.6 E 11 17 1012.4 - 0.0 - Partly cloudy 10 - - - -
19/03:30pm 28.9 E 13 18 1012.6 - 0.0 - Partly cloudy 10 - - - -
19/03:00pm 30.2 E 12 19 1012.3 R 0.0 Haze Partly cloudy 18 - - - -
19/02:30pm 29.1 E 12 18 1012.8 - 0.0 - Partly cloudy 10 - - - -
19/02:00pm 30.4 E 11 17 1013.0 - 0.0 - Mostly cloudy 10 - - - -
19/01:30pm 29.2 E 13 17 1013.2 - 0.0 - Partly cloudy 10 - - - -
19/01:00pm 28.3 E 13 18 1013.6 - 0.0 - Mostly cloudy 10 - - - -
19/12:30pm 28.7 E 14 18 1014.1 - 0.0 - Partly cloudy 10 - - - -
19/12:00pm 28.8 E 15 21 1014.0 R 0.0 Haze Partly cloudy 16 - - - -
19/11:30am 29.2 E 14 19 1014.8 - 0.0 - Mostly clear 10 - - - -
19/11:00am 28.5 E 14 18 1014.8 - 0.0 - Partly cloudy 10 - - - -
19/10:30am 28.1 ENE 15 19 1015.1 - 0.0 - Mostly clear 10 - - - -
19/10:00am 28.7 ENE 14 21 1015.2 - 0.0 - Mostly cloudy 10 - - - -
19/09:30am 28.9 E 15 22 1015.2 - 0.0 - Partly cloudy 10 - - - -
19/09:00am 29.2 E 14 20 1015.0 F 0.0 Haze Partly cloudy 19 - - - -
19/08:30am 27.7 E 14 19 1015.3 - 0.0 - Partly cloudy 10 - - - -
19/08:00am 27.9 E 12 16 1014.9 - 0.0 - Partly cloudy 10 - - - -
19/07:30am 27.2 ENE 10 15 1014.6 - 0.0 - Mostly clear 10 - - - -
19/07:00am 26.5 ENE 9 13 1014.4 - 0.0 - Mostly clear 10 - - - -
19/06:30am 25.7 ENE 8 11 1014.1 - 0.0 - Mostly clear 10 - - - -
19/06:00am 25.3 NE 8 14 1013.3 F 0.0 Haze Mostly clear 17 - - - -
19/05:30am 25.0 NE 7 11 1013.4 - 0.0 - Partly cloudy 10 - - - -
19/05:00am 24.8 ENE 7 11 1013.2 - 0.0 - - 10 - - - -
19/04:30am 23.5 NE 5 6 1013.0 - 0.0 - - 10 - - - -
19/04:00am 21.0 CALM 0 0 1012.9 - 0.0 - - 10 - - - -
19/03:30am 21.1 CALM 0 0 1012.9 - 0.0 - - 10 - - - -
19/03:00am 20.8 CALM 0 0 1012.6 - 0.0 - - 10 - - - -
19/02:30am 21.3 CALM 0 0 1013.0 - 0.0 - - 9 - - - -
19/02:00am 21.4 CALM 0 3 1013.2 - 0.0 - - 10 - - - -
19/01:30am 21.2 CALM 0 0 1013.4 - 0.0 - - 10 - - - -
19/01:00am 21.6 CALM 0 0 1013.5 - 0.0 - - 10 - - - -
19/12:30am 21.8 ENE 3 4 1013.8 - 0.0 - - 10 - - - -
19/12:00am 23.3 ESE 4 4 1013.7 - 0.0 - - 10 - - - -
 
Date/Time
CST
Temp

°C
Wind Pressure Rain
since 9am
mm
Weather Cloud Vis
km
Sea
Height
m
Swell
Dir
 
Speed
knots
Gust
knots
hPa Trend Height
m
Period
s
Dir
18/11:30pm 23.9 ESE 4 5 1014.3 - 0.0 - - 10 - - - -
18/11:00pm 24.8 E 6 7 1014.4 - 0.0 - - 10 - - - -
18/10:30pm 25.1 E 6 7 1014.6 - 0.0 - - 10 - - - -
18/10:00pm 25.4 E 6 8 1014.7 - 0.0 - Mostly clear 10 - - - -
18/09:30pm 25.8 E 7 9 1014.6 - 0.0 - Mostly clear 10 - - - -
18/09:00pm 25.9 E 7 9 1013.9 R 0.0 Fine Partly cloudy 18 - - - -
18/08:30pm 26.1 E 8 12 1014.1 - 0.0 - Partly cloudy 10 - - - -
18/08:00pm 26.2 E 9 13 1013.8 - 0.0 - Partly cloudy 10 - - - -
18/07:30pm 26.5 E 9 11 1013.6 - 0.0 - Partly cloudy 10 - - - -
18/07:00pm 26.4 E 8 11 1013.3 - 0.0 - Partly cloudy 10 - - - -
18/06:30pm 26.6 E 9 13 1012.9 - 0.0 - Mostly clear 10 - - - -
18/06:00pm 27.3 E 10 13 1012.0 R 0.0 Fine Mostly clear 20 - - - -
18/05:30pm 28.0 ESE 12 15 1012.2 - 0.0 - Mostly clear 10 - - - -
18/05:00pm 28.2 ESE 13 19 1012.0 - 0.0 - Partly cloudy 10 - - - -
18/04:30pm 28.4 ESE 13 16 1011.9 - 0.0 - Partly cloudy 10 - - - -
18/04:00pm 29.0 E 14 19 1011.7 - 0.0 - Partly cloudy 10 - - - -
18/03:30pm 30.6 ESE 13 17 1011.8 - 0.0 - Partly cloudy 10 - - - -
18/03:00pm 31.0 ESE 13 18 1011.5 R 0.0 Fine Partly cloudy 22 - - - -
18/02:30pm 30.8 ESE 13 18 1011.9 - 0.0 - Partly cloudy 10 - - - -
18/02:00pm 30.3 E 12 16 1012.0 - 0.0 - Partly cloudy 10 - - - -
18/01:30pm 31.0 E 12 15 1012.3 - 0.0 - Partly cloudy 10 - - - -
18/01:00pm 30.3 E 11 16 1012.7 - 0.0 - Partly cloudy 10 - - - -
18/12:30pm 29.4 E 11 17 1013.3 - 0.0 - Partly cloudy 10 - - - -
18/12:00pm 30.4 E 12 16 1013.4 F 0.0 Haze Partly cloudy 19 - - - -
18/11:30am 30.0 ENE 11 16 1014.4 - 0.0 - Partly cloudy 10 - - - -
18/11:00am 29.9 ENE 11 15 1014.7 - 0.0 - Partly cloudy 10 - - - -
18/10:30am 29.1 ENE 13 19 1014.9 - 0.0 - Partly cloudy 10 - - - -
18/10:00am 30.0 E 13 17 1014.9 - 0.0 - Partly cloudy 10 - - - -
18/09:30am 29.7 E 11 14 1015.0 - 0.0 - Mostly clear 10 - - - -
18/09:00am 29.1 ENE 10 13 1014.8 S 0.0 Haze Mostly clear 18 - - - -
18/08:30am 28.8 NE 10 13 1015.1 - 0.0 - Mostly clear 10 - - - -
18/08:00am 27.9 NE 9 12 1014.9 - 0.0 - Mostly clear 10 - - - -
18/07:30am 26.7 NNE 4 6 1014.7 - 0.0 - Mostly clear 10 - - - -

Other Formats:

Comma delimited format used in spreadsheet applications
http://www.bom.gov.au/fwo/IDD60701/IDD60701.94150.axf

JavaScript Object Notation format (JSON) in row-major order
http://www.bom.gov.au/fwo/IDD60701/IDD60701.94150.json